createdAt,value
2018-12-07T00:02:25.964Z,85.31
2018-12-07T00:04:53.498Z,85.02
2018-12-07T00:07:21.134Z,84.65
2018-12-07T00:09:48.679Z,84.55
2018-12-07T00:12:16.239Z,84.55
2018-12-07T00:14:43.726Z,84.41
2018-12-07T00:17:11.264Z,84.09
2018-12-07T00:19:38.959Z,84.54
2018-12-07T00:22:06.570Z,84.68
2018-12-07T00:24:34.150Z,85.13
2018-12-07T00:27:01.795Z,85.07
2018-12-07T00:29:29.913Z,84.91
2018-12-07T00:31:57.482Z,85.69
2018-12-07T00:34:25.059Z,85.79
2018-12-07T00:36:52.744Z,86.69
2018-12-07T00:39:20.271Z,86.79
2018-12-07T00:41:47.829Z,87.09
2018-12-07T00:44:15.442Z,87.56
2018-12-07T00:46:43.029Z,87.97
2018-12-07T00:49:11.124Z,87.91
2018-12-07T00:51:39.538Z,88.26
2018-12-07T00:54:07.147Z,88.52
2018-12-07T00:56:35.260Z,89.24
2018-12-07T00:59:03.818Z,88.79
2018-12-07T01:01:31.504Z,88.79
2018-12-07T01:03:59.213Z,89.10
2018-12-07T01:06:26.752Z,88.85
2018-12-07T01:08:55.862Z,88.74
2018-12-07T01:11:23.454Z,88.55
2018-12-07T01:13:51.028Z,88.48
2018-12-07T01:16:18.540Z,88.82
2018-12-07T01:18:46.096Z,88.77
2018-12-07T01:21:15.128Z,88.60
2018-12-07T01:23:43.594Z,88.65
2018-12-07T01:26:11.166Z,88.51
2018-12-07T01:28:39.604Z,88.65
2018-12-07T01:31:07.133Z,88.84
2018-12-07T01:33:34.699Z,88.97
2018-12-07T01:36:03.227Z,88.81
2018-12-07T01:38:30.875Z,88.83
2018-12-07T01:40:58.513Z,88.73
2018-12-07T01:43:26.832Z,88.64
2018-12-07T01:45:54.419Z,88.74
2018-12-07T01:48:22.207Z,88.95
2018-12-07T01:50:49.911Z,88.71
2018-12-07T01:53:18.737Z,88.89
2018-12-07T01:55:46.355Z,88.66
2018-12-07T01:58:13.974Z,88.81
2018-12-07T02:00:41.517Z,88.89
2018-12-07T02:03:09.216Z,88.94
2018-12-07T02:05:37.908Z,89.04
2018-12-07T02:08:06.462Z,88.93
2018-12-07T02:10:35.071Z,88.91
2018-12-07T02:13:02.692Z,88.71
2018-12-07T02:15:33.693Z,88.76
2018-12-07T02:18:01.320Z,88.59
2018-12-07T02:20:28.841Z,88.57
2018-12-07T02:22:56.764Z,88.17
2018-12-07T02:25:24.333Z,88.64
2018-12-07T02:27:57.466Z,88.16
2018-12-07T02:30:24.996Z,87.99
2018-12-07T02:32:52.589Z,88.10
2018-12-07T02:35:20.375Z,87.78
2018-12-07T02:37:49.482Z,87.47
2018-12-07T02:40:17.062Z,87.31
2018-12-07T02:42:44.621Z,87.12
2018-12-07T02:45:13.035Z,86.89
2018-12-07T02:47:40.742Z,86.29
2018-12-07T02:50:08.376Z,86.41
2018-12-07T02:52:35.935Z,86.54
2018-12-07T02:55:03.721Z,86.35
2018-12-07T02:57:31.434Z,86.46
2018-12-07T02:59:58.940Z,86.23
2018-12-07T03:02:26.498Z,86.41
2018-12-07T03:04:54.022Z,86.04
2018-12-07T03:07:21.578Z,85.98
2018-12-07T03:09:50.016Z,86.11
2018-12-07T03:12:17.643Z,85.88
2018-12-07T03:14:46.214Z,86.21
2018-12-07T03:17:13.724Z,86.25
2018-12-07T03:19:41.448Z,86.47
2018-12-07T03:22:09.987Z,86.49
2018-12-07T03:24:37.497Z,86.56
2018-12-07T03:27:05.016Z,86.59
2018-12-07T03:29:32.531Z,86.30
2018-12-07T03:32:00.222Z,86.18
2018-12-07T03:34:27.772Z,86.29
2018-12-07T03:36:55.462Z,86.37
2018-12-07T03:39:23.576Z,86.24
2018-12-07T03:41:51.110Z,85.99
2018-12-07T03:44:19.237Z,85.83
2018-12-07T03:46:47.368Z,86.02
2018-12-07T03:49:15.860Z,85.94
2018-12-07T03:51:43.536Z,85.56
2018-12-07T03:54:11.031Z,85.75
2018-12-07T03:56:39.204Z,85.23
2018-12-07T03:59:06.778Z,85.63
2018-12-07T04:01:34.307Z,85.28
2018-12-07T04:04:01.953Z,85.08
2018-12-07T04:06:29.565Z,84.95
2018-12-07T04:08:57.122Z,85.02
2018-12-07T04:11:24.703Z,85.01
2018-12-07T04:13:52.234Z,84.90
2018-12-07T04:16:19.790Z,84.64
2018-12-07T04:18:47.343Z,84.40
2018-12-07T04:21:15.434Z,84.47
2018-12-07T04:23:43.470Z,84.70
2018-12-07T04:26:11.028Z,84.90
2018-12-07T04:28:38.570Z,84.28
2018-12-07T04:31:06.263Z,84.17
2018-12-07T04:33:33.838Z,84.58
2018-12-07T04:36:07.289Z,84.47
2018-12-07T04:38:31.992Z,84.24
2018-12-07T04:40:59.644Z,84.34
2018-12-07T04:43:27.274Z,84.05
2018-12-07T04:45:54.851Z,84.17
2018-12-07T04:48:22.374Z,84.03
2018-12-07T04:50:51.420Z,84.02
2018-12-07T04:53:19.984Z,84.12
2018-12-07T04:55:47.908Z,84.44
2018-12-07T04:58:15.772Z,84.37
2018-12-07T05:00:43.262Z,84.06
2018-12-07T05:03:10.869Z,83.72
2018-12-07T05:05:38.489Z,83.90
2018-12-07T05:08:07.797Z,83.69
2018-12-07T05:10:35.650Z,83.93
2018-12-07T05:13:04.505Z,83.49
2018-12-07T05:15:32.896Z,83.45
2018-12-07T05:18:01.415Z,82.91
2018-12-07T05:20:29.979Z,83.17
2018-12-07T05:22:57.677Z,83.11
2018-12-07T05:25:25.222Z,83.05
2018-12-07T05:27:53.367Z,83.24
2018-12-07T05:30:20.866Z,83.18
2018-12-07T05:32:49.410Z,83.25
2018-12-07T05:35:18.025Z,83.41
2018-12-07T05:37:46.434Z,83.63
2018-12-07T05:40:14.036Z,83.24
2018-12-07T05:42:42.520Z,83.20
2018-12-07T05:45:10.129Z,83.72
2018-12-07T05:47:37.698Z,83.40
2018-12-07T05:50:07.611Z,83.40
2018-12-07T05:52:35.196Z,83.25
2018-12-07T05:55:02.726Z,83.36
2018-12-07T05:57:30.991Z,83.20
2018-12-07T06:00:00.241Z,83.69
2018-12-07T06:02:28.920Z,83.33
2018-12-07T06:04:56.623Z,83.35
2018-12-07T06:07:24.264Z,83.36
2018-12-07T06:09:51.915Z,83.35
2018-12-07T06:12:19.479Z,83.35
2018-12-07T06:14:47.104Z,83.28
2018-12-07T06:17:15.246Z,83.58
2018-12-07T06:19:43.256Z,83.50
2018-12-07T06:22:10.835Z,83.23
2018-12-07T06:24:39.159Z,83.57
2018-12-07T06:27:08.378Z,83.51
2018-12-07T06:29:36.148Z,83.88
2018-12-07T06:32:03.798Z,83.91
2018-12-07T06:34:31.420Z,83.36
2018-12-07T06:36:59.016Z,83.28
2018-12-07T06:39:28.402Z,83.59
2018-12-07T06:41:57.594Z,83.30
2018-12-07T06:44:25.223Z,83.18
2018-12-07T06:46:53.262Z,83.41
2018-12-07T06:49:20.796Z,83.17
2018-12-07T06:51:48.356Z,83.45
2018-12-07T06:54:15.971Z,83.21
2018-12-07T06:56:43.549Z,83.04
2018-12-07T06:59:11.076Z,83.11
2018-12-07T07:01:38.700Z,82.84
2018-12-07T07:04:06.321Z,83.04
2018-12-07T07:06:33.998Z,83.14
2018-12-07T07:09:01.844Z,82.69
2018-12-07T07:11:30.287Z,82.66
2018-12-07T07:13:57.872Z,82.71
2018-12-07T07:16:25.511Z,82.64
2018-12-07T07:18:53.046Z,82.88
2018-12-07T07:21:20.705Z,82.84
2018-12-07T07:23:49.076Z,82.66
2018-12-07T07:26:18.297Z,82.75
2018-12-07T07:28:45.899Z,82.65
2018-12-07T07:33:50.187Z,82.92
2018-12-07T07:36:23.501Z,82.88
2018-12-07T07:38:51.261Z,82.58
2018-12-07T07:41:18.791Z,83.09
2018-12-07T07:43:46.327Z,82.64
2018-12-07T07:46:13.906Z,83.21
2018-12-07T07:48:41.481Z,83.47
2018-12-07T07:51:09.743Z,83.54
2018-12-07T07:53:37.261Z,83.42
2018-12-07T07:56:05.404Z,83.67
2018-12-07T07:58:34.486Z,83.72
2018-12-07T08:01:02.229Z,83.94
2018-12-07T08:03:29.850Z,84.16
2018-12-07T08:05:57.487Z,84.19
2018-12-07T08:08:25.912Z,84.20
2018-12-07T08:10:55.606Z,84.06
2018-12-07T08:13:23.163Z,84.39
2018-12-07T08:15:50.690Z,84.34
2018-12-07T08:18:19.141Z,84.26
2018-12-07T08:20:46.699Z,84.35
2018-12-07T08:23:14.924Z,84.38
2018-12-07T08:25:42.788Z,84.64
2018-12-07T08:28:10.403Z,84.90
2018-12-07T08:30:38.270Z,84.57
2018-12-07T08:33:06.055Z,84.52
2018-12-07T08:35:35.254Z,84.49
2018-12-07T08:38:02.891Z,84.55
2018-12-07T08:40:30.571Z,84.56
2018-12-07T08:42:58.402Z,84.65
2018-12-07T08:45:28.803Z,84.46
2018-12-07T08:47:56.345Z,84.50
2018-12-07T08:50:24.003Z,84.38
2018-12-07T08:52:51.650Z,84.38
2018-12-07T08:55:20.067Z,84.28
2018-12-07T08:57:48.420Z,84.27
2018-12-07T09:00:16.145Z,84.46
2018-12-07T09:02:43.767Z,84.51
2018-12-07T09:05:11.384Z,84.48
2018-12-07T09:07:39.239Z,84.44
2018-12-07T09:10:06.952Z,84.55
2018-12-07T09:12:34.496Z,84.51
2018-12-07T09:15:02.182Z,84.59
2018-12-07T09:17:29.884Z,84.51
2018-12-07T09:19:57.438Z,84.54
2018-12-07T09:22:24.958Z,84.57
2018-12-07T09:24:52.534Z,84.11
2018-12-07T09:27:20.506Z,84.64
2018-12-07T09:29:48.814Z,84.46
2018-12-07T09:32:16.953Z,84.47
2018-12-07T09:34:44.507Z,84.17
2018-12-07T09:37:12.543Z,84.58
2018-12-07T09:39:40.206Z,84.42
2018-12-07T09:42:07.968Z,84.40
2018-12-07T09:44:35.491Z,84.33
2018-12-07T09:47:03.064Z,84.22
2018-12-07T09:49:30.684Z,84.34
2018-12-07T09:51:58.409Z,84.03
2018-12-07T09:54:26.780Z,84.11
2018-12-07T09:56:54.402Z,84.30
2018-12-07T09:59:21.956Z,84.02
2018-12-07T10:01:49.624Z,83.63
2018-12-07T10:04:17.641Z,84.14
2018-12-07T10:06:45.193Z,83.98
2018-12-07T10:09:14.655Z,84.00
2018-12-07T10:11:43.239Z,83.90
2018-12-07T10:14:10.793Z,83.89
2018-12-07T10:16:39.126Z,83.71
2018-12-07T10:19:07.330Z,83.62
2018-12-07T10:21:36.511Z,83.78
2018-12-07T10:24:04.619Z,83.49
2018-12-07T10:26:32.170Z,83.56
2018-12-07T10:29:00.481Z,83.47
2018-12-07T10:31:30.671Z,83.04
2018-12-07T10:34:00.241Z,83.28
2018-12-07T10:36:27.787Z,82.74
2018-12-07T10:38:55.344Z,82.69
2018-12-07T10:41:24.617Z,82.80
2018-12-07T10:43:52.358Z,82.51
2018-12-07T10:46:19.952Z,82.52
2018-12-07T10:48:48.543Z,82.29
2018-12-07T10:51:17.472Z,82.14
2018-12-07T10:53:46.077Z,82.25
2018-12-07T10:56:13.681Z,82.62
2018-12-07T10:58:42.194Z,82.53
2018-12-07T11:01:16.004Z,82.49
2018-12-07T11:03:49.756Z,82.72
2018-12-07T11:06:23.608Z,82.78
2018-12-07T11:12:09.590Z,83.22
2018-12-07T11:14:42.865Z,83.52
2018-12-07T11:17:16.866Z,83.84
2018-12-07T11:19:51.802Z,83.85
2018-12-07T11:22:24.915Z,84.43
2018-12-07T11:24:58.395Z,84.31
2018-12-07T11:27:33.444Z,84.17
2018-12-07T11:30:04.754Z,84.36
2018-12-07T11:32:32.885Z,84.23
2018-12-07T11:35:03.971Z,83.93
2018-12-07T11:37:31.948Z,84.51
2018-12-07T11:40:00.066Z,84.21
2018-12-07T11:42:27.834Z,83.90
2018-12-07T11:44:56.311Z,83.88
2018-12-07T11:47:24.503Z,84.09
2018-12-07T11:49:53.219Z,84.28
2018-12-07T11:52:21.702Z,83.81
2018-12-07T11:54:52.021Z,84.00
2018-12-07T11:57:19.579Z,83.77
2018-12-07T11:59:47.159Z,83.56
2018-12-07T12:02:15.800Z,83.18
2018-12-07T12:04:43.333Z,82.93
2018-12-07T12:07:10.941Z,82.42
2018-12-07T12:09:38.911Z,82.15
2018-12-07T12:12:06.436Z,82.05
2018-12-07T12:14:34.560Z,81.87
2018-12-07T12:17:03.660Z,81.67
2018-12-07T12:19:31.405Z,81.73
2018-12-07T12:21:59.013Z,81.48
2018-12-07T12:24:26.600Z,81.56
2018-12-07T12:26:54.396Z,81.37
2018-12-07T12:29:21.960Z,81.41
2018-12-07T12:31:49.525Z,81.48
2018-12-07T12:34:18.123Z,80.70
2018-12-07T12:36:45.655Z,80.53
2018-12-07T12:39:13.680Z,80.38
2018-12-07T12:41:46.708Z,80.47
2018-12-07T12:49:19.280Z,79.81
2018-12-07T12:51:47.731Z,79.71
2018-12-07T12:54:15.994Z,79.48
2018-12-07T12:56:43.805Z,79.39
2018-12-07T12:59:11.413Z,79.38
2018-12-07T13:01:38.933Z,79.10
2018-12-07T13:04:06.541Z,78.95
2018-12-07T13:06:34.084Z,78.75
2018-12-07T13:09:01.584Z,78.73
2018-12-07T13:11:29.726Z,78.26
2018-12-07T13:13:57.245Z,77.87
2018-12-07T13:16:24.740Z,78.11
2018-12-07T13:18:52.609Z,78.06
2018-12-07T13:21:20.707Z,78.10
2018-12-07T13:23:48.416Z,78.57
2018-12-07T13:26:16.104Z,77.69
2018-12-07T13:28:43.904Z,77.33
2018-12-07T13:31:11.672Z,77.57
2018-12-07T13:33:39.250Z,77.62
2018-12-07T13:36:06.866Z,78.07
2018-12-07T13:38:34.386Z,78.31
2018-12-07T13:41:02.742Z,78.16
2018-12-07T13:43:30.404Z,78.05
2018-12-07T13:45:58.055Z,78.40
2018-12-07T13:48:34.432Z,78.39
2018-12-07T13:51:02.039Z,78.29
2018-12-07T13:53:30.416Z,78.10
2018-12-07T13:55:58.054Z,78.04
2018-12-07T13:58:26.186Z,78.28
2018-12-07T14:00:53.956Z,78.25
2018-12-07T14:03:21.664Z,78.13
2018-12-07T14:05:49.635Z,78.19
2018-12-07T14:08:18.884Z,78.22
2018-12-07T14:10:47.393Z,78.33
2018-12-07T14:13:16.908Z,78.07
2018-12-07T14:15:46.735Z,78.26
2018-12-07T14:18:15.772Z,78.35
2018-12-07T14:20:44.089Z,78.52
2018-12-07T14:23:13.985Z,78.34
2018-12-07T14:25:44.836Z,78.22
2018-12-07T14:28:14.520Z,78.50
2018-12-07T14:30:46.965Z,78.00
2018-12-07T14:33:14.693Z,78.26
2018-12-07T14:35:42.342Z,77.92
2018-12-07T14:38:11.220Z,78.20
2018-12-07T14:40:39.043Z,77.24
2018-12-07T14:43:06.849Z,76.73
2018-12-07T14:45:34.660Z,77.47
2018-12-07T14:48:02.366Z,77.22
2018-12-07T14:50:34.262Z,76.89
2018-12-07T14:53:01.901Z,76.08
2018-12-07T14:55:30.733Z,76.01
2018-12-07T14:57:58.411Z,75.50
2018-12-07T15:00:26.101Z,75.78
2018-12-07T15:02:53.913Z,75.08
2018-12-07T15:05:21.639Z,74.93
2018-12-07T15:07:49.612Z,75.64
2018-12-07T15:10:17.725Z,75.77
2018-12-07T15:12:47.309Z,76.02
2018-12-07T15:15:17.584Z,75.34
2018-12-07T15:17:45.802Z,75.62
2018-12-07T15:20:13.398Z,74.53
2018-12-07T15:22:41.932Z,74.32
2018-12-07T15:25:10.411Z,73.66
2018-12-07T15:27:38.146Z,74.20
2018-12-07T15:30:07.910Z,73.65
2018-12-07T15:32:36.120Z,73.61
2018-12-07T15:35:05.731Z,73.52
2018-12-07T15:37:34.902Z,73.83
2018-12-07T15:40:05.854Z,74.54
2018-12-07T15:42:35.746Z,75.04
2018-12-07T15:45:06.422Z,75.32
2018-12-07T15:47:35.227Z,75.53
2018-12-07T15:50:05.774Z,75.51
2018-12-07T15:52:35.948Z,75.79
2018-12-07T15:55:05.045Z,75.92
2018-12-07T15:57:35.246Z,75.80
2018-12-07T16:00:03.411Z,75.77
2018-12-07T16:02:33.774Z,75.45
2018-12-07T16:05:01.453Z,76.03
2018-12-07T16:07:29.731Z,75.96
2018-12-07T16:09:57.361Z,76.38
2018-12-07T16:12:24.962Z,76.90
2018-12-07T16:14:52.870Z,77.10
2018-12-07T16:17:22.073Z,77.55
2018-12-07T16:19:51.577Z,77.93
2018-12-07T16:22:19.132Z,78.76
2018-12-07T16:24:46.956Z,78.74
2018-12-07T16:27:14.851Z,79.18
2018-12-07T16:29:42.563Z,79.93
2018-12-07T16:32:10.656Z,80.07
2018-12-07T16:34:38.514Z,80.68
2018-12-07T16:37:06.551Z,80.67
2018-12-07T16:39:35.157Z,81.04
2018-12-07T16:42:03.800Z,81.10
2018-12-07T16:44:32.505Z,81.27
2018-12-07T16:47:00.956Z,81.17
2018-12-07T16:49:30.028Z,81.22
2018-12-07T16:51:59.211Z,81.68
2018-12-07T16:54:27.808Z,81.56
2018-12-07T16:56:55.489Z,81.38
2018-12-07T16:59:23.096Z,81.06
2018-12-07T17:01:50.698Z,80.57
2018-12-07T17:04:19.356Z,80.57
2018-12-07T17:06:47.397Z,80.24
2018-12-07T17:09:15.355Z,80.48
2018-12-07T17:11:43.070Z,80.40
2018-12-07T17:14:10.733Z,80.77
2018-12-07T17:16:39.086Z,80.67
2018-12-07T17:19:08.085Z,80.56
2018-12-07T17:21:35.772Z,80.83
2018-12-07T17:27:03.056Z,79.18
2018-12-07T17:29:30.926Z,78.66
2018-12-07T17:31:58.581Z,78.76
2018-12-07T17:34:26.276Z,78.93
2018-12-07T17:36:54.115Z,78.47
2018-12-07T17:39:21.880Z,79.60
2018-12-07T17:41:50.321Z,78.52
2018-12-07T17:44:18.236Z,77.94
2018-12-07T17:46:46.116Z,78.12
2018-12-07T17:49:13.865Z,78.08
2018-12-07T17:51:43.596Z,78.06
2018-12-07T17:54:11.292Z,77.95
2018-12-07T17:56:39.582Z,77.44
2018-12-07T17:59:07.152Z,80.54
2018-12-07T18:01:35.206Z,77.80
2018-12-07T18:04:02.824Z,76.55
2018-12-07T18:06:32.417Z,76.71
2018-12-07T18:09:00.146Z,76.68
2018-12-07T18:11:27.803Z,76.70
2018-12-07T18:13:55.582Z,76.39
2018-12-07T18:16:23.959Z,77.06
2018-12-07T18:18:51.680Z,77.21
2018-12-07T18:21:19.314Z,77.51
2018-12-07T18:23:49.991Z,77.38
2018-12-07T18:26:17.944Z,77.09
2018-12-07T18:28:45.853Z,77.38
2018-12-07T18:31:13.488Z,77.26
2018-12-07T18:33:41.399Z,77.29
2018-12-07T18:36:09.328Z,77.41
2018-12-07T18:38:37.373Z,77.34
2018-12-07T18:41:06.703Z,77.59
2018-12-07T18:43:35.189Z,77.14
2018-12-07T18:46:02.889Z,76.96
2018-12-07T18:48:30.525Z,76.83
2018-12-07T18:50:58.895Z,76.80
2018-12-07T18:53:27.252Z,77.18
2018-12-07T18:55:56.074Z,76.94
2018-12-07T18:58:23.854Z,77.00
2018-12-07T19:00:52.388Z,76.55
2018-12-07T19:03:20.879Z,77.01
2018-12-07T19:05:50.560Z,77.08
2018-12-07T19:08:18.775Z,77.00
2018-12-07T19:10:46.460Z,77.19
2018-12-07T19:13:14.097Z,77.23
2018-12-07T19:15:41.655Z,77.53
2018-12-07T19:18:09.665Z,77.68
2018-12-07T19:20:37.603Z,77.60
2018-12-07T19:23:05.645Z,77.86
2018-12-07T19:25:33.515Z,77.86
2018-12-07T19:28:02.234Z,77.49
2018-12-07T19:30:30.444Z,77.38
2018-12-07T19:32:59.032Z,77.27
2018-12-07T19:35:26.651Z,77.57
2018-12-07T19:37:54.437Z,77.72
2018-12-07T19:40:23.103Z,77.55
2018-12-07T19:42:50.932Z,78.19
2018-12-07T19:45:18.516Z,78.06
2018-12-07T19:47:46.483Z,78.16
2018-12-07T19:50:14.243Z,78.62
2018-12-07T19:52:42.093Z,78.66
2018-12-07T19:55:10.902Z,78.34
2018-12-07T19:57:39.380Z,78.30
2018-12-07T20:00:09.243Z,78.54
2018-12-07T20:02:37.594Z,79.03
2018-12-07T20:05:07.106Z,79.57
2018-12-07T20:07:34.865Z,79.97
2018-12-07T20:10:02.762Z,80.62
2018-12-07T20:12:31.463Z,81.00
2018-12-07T20:14:59.213Z,79.88
2018-12-07T20:17:27.853Z,79.69
2018-12-07T20:19:56.585Z,78.88
2018-12-07T20:22:24.588Z,79.92
2018-12-07T20:24:52.308Z,79.68
2018-12-07T20:27:20.653Z,79.98
2018-12-07T20:29:48.362Z,80.05
2018-12-07T20:32:17.351Z,80.25
2018-12-07T20:34:45.042Z,80.20
2018-12-07T20:37:14.082Z,81.18
2018-12-07T20:39:41.707Z,81.53
2018-12-07T20:42:09.618Z,81.79
2018-12-07T20:44:37.219Z,81.05
2018-12-07T20:47:04.851Z,81.70
2018-12-07T20:49:32.664Z,81.93
2018-12-07T20:52:01.110Z,81.55
2018-12-07T20:54:35.420Z,82.80
2018-12-07T20:57:05.127Z,82.55
2018-12-07T20:59:34.202Z,82.21
2018-12-07T21:02:03.548Z,81.99
2018-12-07T21:04:33.535Z,81.98
2018-12-07T21:07:24.838Z,81.96
2018-12-07T21:14:06.019Z,80.78
2018-12-07T21:17:10.074Z,81.19
2018-12-07T21:19:41.469Z,80.43
2018-12-07T21:22:11.703Z,80.73
2018-12-07T21:24:39.515Z,80.81
2018-12-07T21:27:08.706Z,80.11
2018-12-07T21:29:37.205Z,79.77
2018-12-07T21:32:08.964Z,79.60
2018-12-07T21:34:58.228Z,80.07
2018-12-07T21:37:27.509Z,79.59
2018-12-07T21:40:02.032Z,79.43
2018-12-07T21:42:34.074Z,79.48
2018-12-07T21:45:05.579Z,79.20
2018-12-07T21:51:09.766Z,78.69
2018-12-07T21:53:37.628Z,78.26
2018-12-07T21:56:06.159Z,78.01
2018-12-07T21:58:33.958Z,78.01
2018-12-07T22:01:01.633Z,77.72
2018-12-07T22:03:29.523Z,78.29
2018-12-07T22:05:58.603Z,76.62
2018-12-07T22:08:26.500Z,76.30
2018-12-07T22:10:55.317Z,76.52
2018-12-07T22:13:24.560Z,76.45
2018-12-07T22:15:52.147Z,76.84
2018-12-07T22:18:20.681Z,75.95
2018-12-07T22:20:48.208Z,75.34
2018-12-07T22:23:16.250Z,75.51
2018-12-07T22:25:43.826Z,75.51
2018-12-07T22:28:11.387Z,75.72
2018-12-07T22:30:39.351Z,75.87
2018-12-07T22:33:07.222Z,75.16
2018-12-07T22:35:35.070Z,74.14
2018-12-07T22:38:02.889Z,74.63
2018-12-07T22:40:30.575Z,74.20
2018-12-07T22:42:58.524Z,73.95
2018-12-07T22:45:26.416Z,73.36
2018-12-07T22:47:54.283Z,73.42
2018-12-07T22:50:21.968Z,73.83
2018-12-07T22:52:49.528Z,74.08
2018-12-07T22:55:17.906Z,73.44
2018-12-07T22:57:45.701Z,73.29
2018-12-07T23:00:16.058Z,73.85
2018-12-07T23:02:43.557Z,73.18
2018-12-07T23:05:11.443Z,73.20
2018-12-07T23:07:39.086Z,73.37
2018-12-07T23:10:06.842Z,73.33
2018-12-07T23:12:34.325Z,73.02
2018-12-07T23:15:03.218Z,73.61
2018-12-07T23:17:30.756Z,72.83
2018-12-07T23:19:58.304Z,72.12
2018-12-07T23:22:26.098Z,72.35
2018-12-07T23:24:53.736Z,71.69
2018-12-07T23:27:21.309Z,71.82
2018-12-07T23:29:49.713Z,71.72
2018-12-07T23:32:17.226Z,71.96
2018-12-07T23:34:44.895Z,72.06
2018-12-07T23:37:12.576Z,71.72
2018-12-07T23:39:40.060Z,71.35
2018-12-07T23:42:07.612Z,71.94
2018-12-07T23:44:35.174Z,71.54
2018-12-07T23:47:02.765Z,71.85
2018-12-07T23:49:30.316Z,71.11
2018-12-07T23:51:58.258Z,71.25
2018-12-07T23:54:27.311Z,71.85
2018-12-07T23:56:54.849Z,71.66
2018-12-07T23:59:22.386Z,71.03
